Tuesday, January 22, 2019, 8:57 PM GMT
Back to Local

CWNH, Riviere Du Loup, Que.

Location: , , Canada Lat: 47.8
Local Time: 8:57 PM GMT (20:57 GMT) Lon: -69.55
Time Zone: GMT Elev: 485 ft

Show me the last for .
Show Coded

Time T Td Feel RH Dir Speed Gust Alt SLP Vis Weather Sky Remarks
2019-01-22 20:00 13 -8 3 38 290° 6 - - 30.37 0 None
2019-01-22 19:00 10 -2 -3 58 360° 9 - - 30.35 0 None
2019-01-22 18:00 11 -4 -7 49 330° 10 18 - 30.32 0 None
2019-01-22 17:00 8 -9 -5 44 330° 9 - - 30.32 0 None
2019-01-22 16:00 6 -8 -5 51 320° 7 - - 30.33 0 None
2019-01-22 15:00 5 -6 -16 61 340° 10 21 - 30.30 0 Peak wind: 20 mph (18 kts) from 360° at 50 min
2019-01-22 14:00 2 -7 -12 66 310° 8 - - 30.28 0 Peak wind: 20 mph (18 kts) from 340° at 16 min
2019-01-22 13:00 0 -9 -14 64 320° 8 - - 30.24 0 Peak wind: 19 mph (17 kts) from 300° at 22 min
2019-01-22 12:00 -1 -10 -23 65 320° 9 20 - 30.21 0 Peak wind: 20 mph (18 kts) from 320° at 16 min
2019-01-22 11:00 -1 -7 -16 77 320° 8 - - 30.17 0 Peak wind: 20 mph (18 kts) from 350° at 04 min
2019-01-22 10:00 0 -9 -22 66 330° 13 18 - 30.14 0 None
2019-01-22 09:00 -1 -9 -14 67 320° 7 - - 30.10 0 Peak wind: 20 mph (18 kts) from 340° at 03 min
2019-01-22 08:00 0 -9 -20 64 340° 12 17 - 30.06 0 Peak wind: 23 mph (20 kts) from 330° at 40 min
2019-01-22 07:00 0 -9 -22 64 340° 13 20 - 30.03 0 Peak wind: 25 mph (22 kts) from 340° at 09 min
2019-01-22 06:00 2 -8 -21 63 340° 15 23 - 30.00 0 Peak wind: 29 mph (26 kts) from 350° at 03 min
2019-01-22 05:00 2 -8 -23 60 340° 20 32 - 29.95 0 Peak wind: 33 mph (29 kts) from 330° at 17 min
2019-01-22 04:00 4 -5 -21 64 340° 18 31 - 29.92 0 Peak wind: 32 mph (28 kts) from 350° at 39 min
2019-01-22 03:00 4 -4 -20 66 340° 20 32 - 29.89 0 Peak wind: 32 mph (28 kts) from 340° at 53 min
2019-01-22 02:00 6 -2 -18 69 340° 17 30 - 29.86 0 Peak wind: 31 mph (27 kts) from 340° at 43 min
2019-01-22 01:00 7 -1 -16 69 350° 18 29 - 29.84 0 Peak wind: 33 mph (29 kts) from 350° at 31 min
2019-01-22 00:00 7 -1 -15 68 350° 18 26 - 29.82 0 Peak wind: 31 mph (27 kts) from 350° at 18 min
2019-01-21 23:00 7 -1 -16 69 350° 21 29 - 29.80 0 Peak wind: 36 mph (32 kts) from 340° at 26 min
2019-01-21 22:00 7 0 -16 73 350° 17 28 - 29.76 0 Peak wind: 29 mph (26 kts) from 0° at 32 min
1-hr Precip Total: 0.01"
2019-01-21 21:00 7 0 -15 73 350° 16 24 - 29.74 0 Peak wind: 26 mph (23 kts) from 350° at 07 min

Support USWX by starting your Amazon purchase here.